Login to view products. 
Tuesday, February 28, 2017 (00:58 UTC)
Ras Al Khaimah International Airport
ICAO Code: OMRK
IATA Code: RKT
  • METAR OMRK 280000Z 20003KT 2500 BR NSC 13/13 Q1018 A3006=
  • TAF OMRK 272305Z 2800/0106 VRB02KT 3000 BR NSC PROB30 2800/2805 0100 FG VV/// BECMG 2804/2806 8000 NSW BECMG 2807/2809 34010KT BECMG 2815/2817 VRB02KT PROB30 2820/0105 1500 BR=